Aviation Digital Data Service (ADDS)

Output produced by METARs form (1033 UTC 17 June 2019)
found at http://www.aviationweather.gov/metar/data/
 
METAR text: ZSNJ 171000Z 27002MPS 240V310 7000 -RA FEW040 23/21 Q1009 NOSIG
Conditions at: ZSNJ (NANJING/LUKOU , CN) observed 1000 UTC 17 June 2019
Temperature: 23.0°C (73°F)
Dewpoint: 21.0°C (70°F) [RH = 89%]
Pressure (altimeter): 29.79 inches Hg (1009.0 mb)
Winds: from the W (270 degrees) at 5 MPH (4 knots; 2.1 m/s)
Visibility: 4 miles ( 7 km)
Ceiling: at least 12,000 feet AGL
Clouds: few clouds at 4000 feet AGL
Weather: -RA  (light rain)

METAR text: ZSNJ 170900Z 24003MPS 9999 -RA NSC 25/20 Q1008 NOSIG
Conditions at: ZSNJ (NANJING/LUKOU , CN) observed 0900 UTC 17 June 2019
Temperature: 25.0°C (77°F)
Dewpoint: 20.0°C (68°F) [RH = 74%]
Pressure (altimeter): 29.76 inches Hg (1008.0 mb)
Winds: from the WSW (240 degrees) at 7 MPH (6 knots; 3.1 m/s)
Visibility: 6 or more miles (10+ km)
Ceiling: at least 12,000 feet AGL
Clouds: sky clear below 12,000 feet AGL
Weather: -RA  (light rain)

METAR text: ZSNJ 170800Z 24003MPS CAVOK 28/18 Q1008 NOSIG
Conditions at: ZSNJ (NANJING/LUKOU , CN) observed 0800 UTC 17 June 2019
Temperature: 28.0°C (82°F)
Dewpoint: 18.0°C (64°F) [RH = 55%]
Pressure (altimeter): 29.76 inches Hg (1008.0 mb)
Winds: from the WSW (240 degrees) at 7 MPH (6 knots; 3.1 m/s)
Visibility: 6 or more miles (10+ km)
Ceiling: ceiling and visibility are OK
Clouds: unknown
Weather: no significant weather observed at this time

METAR text: ZSNJ 170700Z 22003MPS CAVOK 28/17 Q1008 NOSIG
Conditions at: ZSNJ (NANJING/LUKOU , CN) observed 0700 UTC 17 June 2019
Temperature: 28.0°C (82°F)
Dewpoint: 17.0°C (63°F) [RH = 51%]
Pressure (altimeter): 29.76 inches Hg (1008.0 mb)
Winds: from the SW (220 degrees) at 7 MPH (6 knots; 3.1 m/s)
Visibility: 6 or more miles (10+ km)
Ceiling: ceiling and visibility are OK
Clouds: unknown
Weather: no significant weather observed at this time

METAR text: ZSNJ 170600Z VRB04G10MPS CAVOK 29/16 Q1009 NOSIG
Conditions at: ZSNJ (NANJING/LUKOU , CN) observed 0600 UTC 17 June 2019
Temperature: 29.0°C (84°F)
Dewpoint: 16.0°C (61°F) [RH = 45%]
Pressure (altimeter): 29.79 inches Hg (1009.0 mb)
Winds: variable direction winds at 9 MPH (8 knots; 4.1 m/s)
gusting to 22 MPH (19 knots; 9.8 m/s)
Visibility: 6 or more miles (10+ km)
Ceiling: ceiling and visibility are OK
Clouds: unknown
Weather: no significant weather observed at this time

METAR text: ZSNJ 170500Z 21003MPS CAVOK 30/15 Q1009 NOSIG
Conditions at: ZSNJ (NANJING/LUKOU , CN) observed 0500 UTC 17 June 2019
Temperature: 30.0°C (86°F)
Dewpoint: 15.0°C (59°F) [RH = 40%]
Pressure (altimeter): 29.79 inches Hg (1009.0 mb)
Winds: from the SSW (210 degrees) at 7 MPH (6 knots; 3.1 m/s)
Visibility: 6 or more miles (10+ km)
Ceiling: ceiling and visibility are OK
Clouds: unknown
Weather: no significant weather observed at this time

METAR text: ZSNJ 170400Z 19004MPS 9999 -RA NSC 31/13 Q1009 NOSIG
Conditions at: ZSNJ (NANJING/LUKOU , CN) observed 0400 UTC 17 June 2019
Temperature: 31.0°C (88°F)
Dewpoint: 13.0°C (55°F) [RH = 33%]
Pressure (altimeter): 29.79 inches Hg (1009.0 mb)
Winds: from the S (190 degrees) at 9 MPH (8 knots; 4.1 m/s)
Visibility: 6 or more miles (10+ km)
Ceiling: at least 12,000 feet AGL
Clouds: sky clear below 12,000 feet AGL
Weather: -RA  (light rain)

METAR text: ZSNJ 170300Z 15004MPS 120V180 CAVOK 31/13 Q1009 NOSIG
Conditions at: ZSNJ (NANJING/LUKOU , CN) observed 0300 UTC 17 June 2019
Temperature: 31.0°C (88°F)
Dewpoint: 13.0°C (55°F) [RH = 33%]
Pressure (altimeter): 29.79 inches Hg (1009.0 mb)
Winds: from the SSE (150 degrees) at 9 MPH (8 knots; 4.1 m/s)
Visibility: 6 or more miles (10+ km)
Ceiling: ceiling and visibility are OK
Clouds: unknown
Weather: no significant weather observed at this time

METAR text: ZSNJ 170200Z 15004MPS 110V180 CAVOK 30/16 Q1009 NOSIG
Conditions at: ZSNJ (NANJING/LUKOU , CN) observed 0200 UTC 17 June 2019
Temperature: 30.0°C (86°F)
Dewpoint: 16.0°C (61°F) [RH = 43%]
Pressure (altimeter): 29.79 inches Hg (1009.0 mb)
Winds: from the SSE (150 degrees) at 9 MPH (8 knots; 4.1 m/s)
Visibility: 6 or more miles (10+ km)
Ceiling: ceiling and visibility are OK
Clouds: unknown
Weather: no significant weather observed at this time

METAR text: ZSNJ 170100Z 13003MPS 100V160 8000 NSC 29/20 Q1009 NOSIG
Conditions at: ZSNJ (NANJING/LUKOU , CN) observed 0100 UTC 17 June 2019
Temperature: 29.0°C (84°F)
Dewpoint: 20.0°C (68°F) [RH = 58%]
Pressure (altimeter): 29.79 inches Hg (1009.0 mb)
Winds: from the SE (130 degrees) at 7 MPH (6 knots; 3.1 m/s)
Visibility: 5 miles ( 8 km)
Ceiling: at least 12,000 feet AGL
Clouds: sky clear below 12,000 feet AGL
Weather: no significant weather observed at this time

METAR text: ZSNJ 170000Z 14002MPS 100V180 4000 HZ NSC 27/20 Q1009 NOSIG
Conditions at: ZSNJ (NANJING/LUKOU , CN) observed 0000 UTC 17 June 2019
Temperature: 27.0°C (81°F)
Dewpoint: 20.0°C (68°F) [RH = 66%]
Pressure (altimeter): 29.79 inches Hg (1009.0 mb)
Winds: from the SE (140 degrees) at 5 MPH (4 knots; 2.1 m/s)
Visibility: 2.49 miles (4.01 km)
Ceiling: at least 12,000 feet AGL
Clouds: sky clear below 12,000 feet AGL
Weather: HZ  (haze)

METAR text: ZSNJ 162300Z 14002MPS 090V180 4000 HZ NSC 26/20 Q1009 NOSIG
Conditions at: ZSNJ (NANJING/LUKOU , CN) observed 2300 UTC 16 June 2019
Temperature: 26.0°C (79°F)
Dewpoint: 20.0°C (68°F) [RH = 70%]
Pressure (altimeter): 29.79 inches Hg (1009.0 mb)
Winds: from the SE (140 degrees) at 5 MPH (4 knots; 2.1 m/s)
Visibility: 2.49 miles (4.01 km)
Ceiling: at least 12,000 feet AGL
Clouds: sky clear below 12,000 feet AGL
Weather: HZ  (haze)

METAR text: ZSNJ 162200Z 09002MPS 4500 BR NSC 25/20 Q1009 NOSIG
Conditions at: ZSNJ (NANJING/LUKOU , CN) observed 2200 UTC 16 June 2019
Temperature: 25.0°C (77°F)
Dewpoint: 20.0°C (68°F) [RH = 74%]
Pressure (altimeter): 29.79 inches Hg (1009.0 mb)
Winds: from the E (90 degrees) at 5 MPH (4 knots; 2.1 m/s)
Visibility: 2.80 miles (4.51 km)
Ceiling: at least 12,000 feet AGL
Clouds: sky clear below 12,000 feet AGL
Weather: BR  (mist)

METAR text: ZSNJ 162100Z 09002MPS 5000 BR NSC 24/20 Q1008 NOSIG
Conditions at: ZSNJ (NANJING/LUKOU , CN) observed 2100 UTC 16 June 2019
Temperature: 24.0°C (75°F)
Dewpoint: 20.0°C (68°F) [RH = 78%]
Pressure (altimeter): 29.76 inches Hg (1008.0 mb)
Winds: from the E (90 degrees) at 5 MPH (4 knots; 2.1 m/s)
Visibility: 3 miles ( 5 km)
Ceiling: at least 12,000 feet AGL
Clouds: sky clear below 12,000 feet AGL
Weather: BR  (mist)

METAR text: ZSNJ 162000Z VRB01MPS 6000 NSC 24/20 Q1008 NOSIG
Conditions at: ZSNJ (NANJING/LUKOU , CN) observed 2000 UTC 16 June 2019
Temperature: 24.0°C (75°F)
Dewpoint: 20.0°C (68°F) [RH = 78%]
Pressure (altimeter): 29.76 inches Hg (1008.0 mb)
Winds: variable direction winds at 2 MPH (2 knots; 1.0 m/s)
Visibility: 4 miles ( 6 km)
Ceiling: at least 12,000 feet AGL
Clouds: sky clear below 12,000 feet AGL
Weather: no significant weather observed at this time

METAR text: ZSNJ 161900Z 06002MPS 7000 NSC 24/20 Q1008 NOSIG
Conditions at: ZSNJ (NANJING/LUKOU , CN) observed 1900 UTC 16 June 2019
Temperature: 24.0°C (75°F)
Dewpoint: 20.0°C (68°F) [RH = 78%]
Pressure (altimeter): 29.76 inches Hg (1008.0 mb)
Winds: from the ENE (60 degrees) at 5 MPH (4 knots; 2.1 m/s)
Visibility: 4 miles ( 7 km)
Ceiling: at least 12,000 feet AGL
Clouds: sky clear below 12,000 feet AGL
Weather: no significant weather observed at this time

METAR text: ZSNJ 161800Z VRB01MPS CAVOK 25/19 Q1008 NOSIG
Conditions at: ZSNJ (NANJING/LUKOU , CN) observed 1800 UTC 16 June 2019
Temperature: 25.0°C (77°F)
Dewpoint: 19.0°C (66°F) [RH = 69%]
Pressure (altimeter): 29.76 inches Hg (1008.0 mb)
Winds: variable direction winds at 2 MPH (2 knots; 1.0 m/s)
Visibility: 6 or more miles (10+ km)
Ceiling: ceiling and visibility are OK
Clouds: unknown
Weather: no significant weather observed at this time

METAR text: ZSNJ 161700Z VRB02MPS CAVOK 26/18 Q1008 NOSIG
Conditions at: ZSNJ (NANJING/LUKOU , CN) observed 1700 UTC 16 June 2019
Temperature: 26.0°C (79°F)
Dewpoint: 18.0°C (64°F) [RH = 61%]
Pressure (altimeter): 29.76 inches Hg (1008.0 mb)
Winds: variable direction winds at 5 MPH (4 knots; 2.1 m/s)
Visibility: 6 or more miles (10+ km)
Ceiling: ceiling and visibility are OK
Clouds: unknown
Weather: no significant weather observed at this time

METAR text: ZSNJ 161600Z 14002MPS 060V160 CAVOK 27/19 Q1008 NOSIG
Conditions at: ZSNJ (NANJING/LUKOU , CN) observed 1600 UTC 16 June 2019
Temperature: 27.0°C (81°F)
Dewpoint: 19.0°C (66°F) [RH = 62%]
Pressure (altimeter): 29.76 inches Hg (1008.0 mb)
Winds: from the SE (140 degrees) at 5 MPH (4 knots; 2.1 m/s)
Visibility: 6 or more miles (10+ km)
Ceiling: ceiling and visibility are OK
Clouds: unknown
Weather: no significant weather observed at this time

METAR text: ZSNJ 161500Z 14002MPS 100V160 CAVOK 28/19 Q1008 NOSIG
Conditions at: ZSNJ (NANJING/LUKOU , CN) observed 1500 UTC 16 June 2019
Temperature: 28.0°C (82°F)
Dewpoint: 19.0°C (66°F) [RH = 58%]
Pressure (altimeter): 29.76 inches Hg (1008.0 mb)
Winds: from the SE (140 degrees) at 5 MPH (4 knots; 2.1 m/s)
Visibility: 6 or more miles (10+ km)
Ceiling: ceiling and visibility are OK
Clouds: unknown
Weather: no significant weather observed at this time

METAR text: ZSNJ 161400Z 13003MPS CAVOK 27/19 Q1008 NOSIG
Conditions at: ZSNJ (NANJING/LUKOU , CN) observed 1400 UTC 16 June 2019
Temperature: 27.0°C (81°F)
Dewpoint: 19.0°C (66°F) [RH = 62%]
Pressure (altimeter): 29.76 inches Hg (1008.0 mb)
Winds: from the SE (130 degrees) at 7 MPH (6 knots; 3.1 m/s)
Visibility: 6 or more miles (10+ km)
Ceiling: ceiling and visibility are OK
Clouds: unknown
Weather: no significant weather observed at this time

METAR text: ZSNJ 161300Z 14002MPS CAVOK 28/20 Q1008 NOSIG
Conditions at: ZSNJ (NANJING/LUKOU , CN) observed 1300 UTC 16 June 2019
Temperature: 28.0°C (82°F)
Dewpoint: 20.0°C (68°F) [RH = 62%]
Pressure (altimeter): 29.76 inches Hg (1008.0 mb)
Winds: from the SE (140 degrees) at 5 MPH (4 knots; 2.1 m/s)
Visibility: 6 or more miles (10+ km)
Ceiling: ceiling and visibility are OK
Clouds: unknown
Weather: no significant weather observed at this time

METAR text: ZSNJ 161200Z 14003MPS CAVOK 28/20 Q1008 NOSIG
Conditions at: ZSNJ (NANJING/LUKOU , CN) observed 1200 UTC 16 June 2019
Temperature: 28.0°C (82°F)
Dewpoint: 20.0°C (68°F) [RH = 62%]
Pressure (altimeter): 29.76 inches Hg (1008.0 mb)
Winds: from the SE (140 degrees) at 7 MPH (6 knots; 3.1 m/s)
Visibility: 6 or more miles (10+ km)
Ceiling: ceiling and visibility are OK
Clouds: unknown
Weather: no significant weather observed at this time

METAR text: ZSNJ 161100Z 14003MPS 100V160 9000 NSC 29/20 Q1007 NOSIG
Conditions at: ZSNJ (NANJING/LUKOU , CN) observed 1100 UTC 16 June 2019
Temperature: 29.0°C (84°F)
Dewpoint: 20.0°C (68°F) [RH = 58%]
Pressure (altimeter): 29.73 inches Hg (1007.0 mb)
Winds: from the SE (140 degrees) at 7 MPH (6 knots; 3.1 m/s)
Visibility: 6 miles ( 9 km)
Ceiling: at least 12,000 feet AGL
Clouds: sky clear below 12,000 feet AGL
Weather: no significant weather observed at this time

METAR text: ZSNJ 161000Z 14003MPS 9000 NSC 30/20 Q1007 NOSIG
Conditions at: ZSNJ (NANJING/LUKOU , CN) observed 1000 UTC 16 June 2019
Temperature: 30.0°C (86°F)
Dewpoint: 20.0°C (68°F) [RH = 55%]
Pressure (altimeter): 29.73 inches Hg (1007.0 mb)
Winds: from the SE (140 degrees) at 7 MPH (6 knots; 3.1 m/s)
Visibility: 6 miles ( 9 km)
Ceiling: at least 12,000 feet AGL
Clouds: sky clear below 12,000 feet AGL
Weather: no significant weather observed at this time

METAR text: ZSNJ 160900Z 12004MPS 8000 NSC 31/19 Q1007 NOSIG
Conditions at: ZSNJ (NANJING/LUKOU , CN) observed 0900 UTC 16 June 2019
Temperature: 31.0°C (88°F)
Dewpoint: 19.0°C (66°F) [RH = 49%]
Pressure (altimeter): 29.73 inches Hg (1007.0 mb)
Winds: from the ESE (120 degrees) at 9 MPH (8 knots; 4.1 m/s)
Visibility: 5 miles ( 8 km)
Ceiling: at least 12,000 feet AGL
Clouds: sky clear below 12,000 feet AGL
Weather: no significant weather observed at this time

METAR text: ZSNJ 160800Z 11004MPS 7000 NSC 32/20 Q1007 NOSIG
Conditions at: ZSNJ (NANJING/LUKOU , CN) observed 0800 UTC 16 June 2019
Temperature: 32.0°C (90°F)
Dewpoint: 20.0°C (68°F) [RH = 49%]
Pressure (altimeter): 29.73 inches Hg (1007.0 mb)
Winds: from the ESE (110 degrees) at 9 MPH (8 knots; 4.1 m/s)
Visibility: 4 miles ( 7 km)
Ceiling: at least 12,000 feet AGL
Clouds: sky clear below 12,000 feet AGL
Weather: no significant weather observed at this time

METAR text: ZSNJ 160700Z 14004MPS CAVOK 32/19 Q1007 NOSIG
Conditions at: ZSNJ (NANJING/LUKOU , CN) observed 0700 UTC 16 June 2019
Temperature: 32.0°C (90°F)
Dewpoint: 19.0°C (66°F) [RH = 46%]
Pressure (altimeter): 29.73 inches Hg (1007.0 mb)
Winds: from the SE (140 degrees) at 9 MPH (8 knots; 4.1 m/s)
Visibility: 6 or more miles (10+ km)
Ceiling: ceiling and visibility are OK
Clouds: unknown
Weather: no significant weather observed at this time

METAR text: ZSNJ 160600Z 13003MPS 100V170 CAVOK 31/19 Q1007 NOSIG
Conditions at: ZSNJ (NANJING/LUKOU , CN) observed 0600 UTC 16 June 2019
Temperature: 31.0°C (88°F)
Dewpoint: 19.0°C (66°F) [RH = 49%]
Pressure (altimeter): 29.73 inches Hg (1007.0 mb)
Winds: from the SE (130 degrees) at 7 MPH (6 knots; 3.1 m/s)
Visibility: 6 or more miles (10+ km)
Ceiling: ceiling and visibility are OK
Clouds: unknown
Weather: no significant weather observed at this time

METAR text: ZSNJ 160500Z 09003MPS 040V130 8000 NSC 31/19 Q1007 NOSIG
Conditions at: ZSNJ (NANJING/LUKOU , CN) observed 0500 UTC 16 June 2019
Temperature: 31.0°C (88°F)
Dewpoint: 19.0°C (66°F) [RH = 49%]
Pressure (altimeter): 29.73 inches Hg (1007.0 mb)
Winds: from the E (90 degrees) at 7 MPH (6 knots; 3.1 m/s)
Visibility: 5 miles ( 8 km)
Ceiling: at least 12,000 feet AGL
Clouds: sky clear below 12,000 feet AGL
Weather: no significant weather observed at this time

METAR text: ZSNJ 160400Z 10003MPS 080V140 7000 NSC 30/19 Q1008 NOSIG
Conditions at: ZSNJ (NANJING/LUKOU , CN) observed 0400 UTC 16 June 2019
Temperature: 30.0°C (86°F)
Dewpoint: 19.0°C (66°F) [RH = 52%]
Pressure (altimeter): 29.76 inches Hg (1008.0 mb)
Winds: from the E (100 degrees) at 7 MPH (6 knots; 3.1 m/s)
Visibility: 4 miles ( 7 km)
Ceiling: at least 12,000 feet AGL
Clouds: sky clear below 12,000 feet AGL
Weather: no significant weather observed at this time

METAR text: ZSNJ 160300Z 14003MPS 6000 SCT040 29/19 Q1008 NOSIG
Conditions at: ZSNJ (NANJING/LUKOU , CN) observed 0300 UTC 16 June 2019
Temperature: 29.0°C (84°F)
Dewpoint: 19.0°C (66°F) [RH = 55%]
Pressure (altimeter): 29.76 inches Hg (1008.0 mb)
Winds: from the SE (140 degrees) at 7 MPH (6 knots; 3.1 m/s)
Visibility: 4 miles ( 6 km)
Ceiling: at least 12,000 feet AGL
Clouds: scattered clouds at 4000 feet AGL
Weather: no significant weather observed at this time

METAR text: ZSNJ 160200Z 12002MPS 4000 HZ SCT026 27/22 Q1008 NOSIG
Conditions at: ZSNJ (NANJING/LUKOU , CN) observed 0200 UTC 16 June 2019
Temperature: 27.0°C (81°F)
Dewpoint: 22.0°C (72°F) [RH = 74%]
Pressure (altimeter): 29.76 inches Hg (1008.0 mb)
Winds: from the ESE (120 degrees) at 5 MPH (4 knots; 2.1 m/s)
Visibility: 2.49 miles (4.01 km)
Ceiling: at least 12,000 feet AGL
Clouds: scattered clouds at 2600 feet AGL
Weather: HZ  (haze)

METAR text: ZSNJ 160100Z 06003MPS 030V090 3000 -RA BR SCT026 26/22 Q1008 NOSIG
Conditions at: ZSNJ (NANJING/LUKOU , CN) observed 0100 UTC 16 June 2019
Temperature: 26.0°C (79°F)
Dewpoint: 22.0°C (72°F) [RH = 79%]
Pressure (altimeter): 29.76 inches Hg (1008.0 mb)
Winds: from the ENE (60 degrees) at 7 MPH (6 knots; 3.1 m/s)
Visibility: 1.86 miles (2.99 km)
Ceiling: at least 12,000 feet AGL
Clouds: scattered clouds at 2600 feet AGL
Weather: -RA BR  (light rain, mist)

METAR text: ZSNJ 160000Z 16002MPS 110V180 4000 BR NSC 26/22 Q1007 NOSIG
Conditions at: ZSNJ (NANJING/LUKOU , CN) observed 0000 UTC 16 June 2019
Temperature: 26.0°C (79°F)
Dewpoint: 22.0°C (72°F) [RH = 79%]
Pressure (altimeter): 29.73 inches Hg (1007.0 mb)
Winds: from the SSE (160 degrees) at 5 MPH (4 knots; 2.1 m/s)
Visibility: 2.49 miles (4.01 km)
Ceiling: at least 12,000 feet AGL
Clouds: sky clear below 12,000 feet AGL
Weather: BR  (mist)

METAR text: ZSNJ 152300Z 13002MPS 090V180 3000 BR NSC 26/22 Q1007 NOSIG
Conditions at: ZSNJ (NANJING/LUKOU , CN) observed 2300 UTC 15 June 2019
Temperature: 26.0°C (79°F)
Dewpoint: 22.0°C (72°F) [RH = 79%]
Pressure (altimeter): 29.73 inches Hg (1007.0 mb)
Winds: from the SE (130 degrees) at 5 MPH (4 knots; 2.1 m/s)
Visibility: 1.86 miles (2.99 km)
Ceiling: at least 12,000 feet AGL
Clouds: sky clear below 12,000 feet AGL
Weather: BR  (mist)

Forecast for: ZSNJ (NANJING/LUKOU , CN)
Text: TAF ZSNJ 170920Z 1712/1812 15004MPS 3000 -RA BR BKN020 TX26/1806Z TN21/1721Z
Forecast period: 1200 to 1500 UTC 17 June 2019
Forecast type: FROM: standard forecast or significant change
Winds: from the SSE (150 degrees) at 9 MPH (8 knots; 4.1 m/s)
Visibility: 1.86 miles (2.99 km)
Ceiling: 2000 feet AGL
Clouds: broken clouds at 2000 feet AGL
Weather: -RA BR  (light rain, mist)
Text: BECMG 1715/1717 2500 -RA BR BKN009 OVC030
Forecast period: 1500 UTC 17 June 2019 to 0100 UTC 18 June 2019
Forecast type: BECOMING: Conditions expected to become as follows by 1700 UTC 17 June 2019
Winds: from the SSE (150 degrees) at 9 MPH (8 knots; 4.1 m/s)
Visibility: 1.55 miles (2.49 km)
Ceiling: 900 feet AGL
Clouds: broken clouds at 900 feet AGL
overcast cloud deck at 3000 feet AGL
Weather: -RA BR  (light rain, mist)
Text: TEMPO 1717/1723 1200 SHRA BKN005 OVC023 FEW030CB
Forecast period: 1700 to 2300 UTC 17 June 2019
Forecast type: TEMPORARY: The following changes expected for less than half the time period
Visibility: 0.75 miles (1.21 km)
Ceiling: 500 feet AGL
Clouds: broken clouds at 500 feet AGL
overcast cloud deck at 2300 feet AGL
few clouds at 3000 feet AGL
Weather: SHRA  (rain showers)
Text: BECMG 1801/1802 3000 -RA BR
Forecast period: 0100 to 1200 UTC 18 June 2019
Forecast type: BECOMING: Conditions expected to become as follows by 0200 UTC 18 June 2019
Winds: from the SSE (150 degrees) at 9 MPH (8 knots; 4.1 m/s)
Visibility: 1.86 miles (2.99 km)
Ceiling: 900 feet AGL
Clouds: broken clouds at 900 feet AGL
overcast cloud deck at 3000 feet AGL
Weather: -RA BR  (light rain, mist)